Time;durP1;ratioP1;P1;durP2;ratioP2;P2;SDS_P1;SDS_P2;PMS_P1;PMS_P2;Temp;Humidity;BMP_temperature;BMP_pressure;BME280_temperature;BME280_humidity;BME280_pressure;Samples;Min_cycle;Max_cycle;Signal;HPM_P1;HPM_P2
2022/10/18 00:00:25;;;;;;;6.33;5.43;;;17.70;99.90;;;;;;4946354;29;20197;-79
2022/10/18 00:02:50;;;;;;;15.43;6.47;;;17.70;99.90;;;;;;4935668;29;20199;-78
2022/10/18 00:05:16;;;;;;;8.80;6.37;;;17.70;99.90;;;;;;4928490;29;20217;-78
2022/10/18 00:07:41;;;;;;;6.20;5.60;;;17.70;99.90;;;;;;4937463;29;20669;-76
2022/10/18 00:10:07;;;;;;;8.33;6.77;;;17.70;99.90;;;;;;4941249;29;20938;-73
2022/10/18 00:12:35;;;;;;;7.33;6.10;;;17.70;99.90;;;;;;4935833;29;20247;-74
2022/10/18 00:15:01;;;;;;;7.73;6.93;;;17.70;99.90;;;;;;4941631;28;20676;-74
2022/10/18 00:17:27;;;;;;;8.67;7.83;;;17.70;99.90;;;;;;4937884;29;20262;-75
2022/10/18 00:19:52;;;;;;;8.07;6.33;;;17.70;99.90;;;;;;4936899;29;20202;-74
2022/10/18 00:22:17;;;;;;;8.43;7.20;;;17.70;99.90;;;;;;4945805;29;20194;-74
2022/10/18 00:24:43;;;;;;;7.27;6.57;;;17.70;99.90;;;;;;4938993;29;20222;-74
2022/10/18 00:27:08;;;;;;;8.80;5.97;;;17.70;99.90;;;;;;4940096;29;20191;-75
2022/10/18 00:29:34;;;;;;;10.80;7.97;;;17.60;99.90;;;;;;4943843;29;20212;-75
2022/10/18 00:31:59;;;;;;;12.67;6.83;;;17.60;99.90;;;;;;4945789;29;20241;-76
2022/10/18 00:34:25;;;;;;;9.80;7.30;;;17.60;99.90;;;;;;4941244;29;20213;-75
2022/10/18 00:36:50;;;;;;;11.50;7.43;;;17.60;99.90;;;;;;4945703;29;20199;-75
2022/10/18 00:39:19;;;;;;;8.03;7.23;;;17.60;99.90;;;;;;4940773;29;20202;-73
2022/10/18 00:41:45;;;;;;;8.47;6.60;;;17.60;99.90;;;;;;4937152;29;20687;-74
2022/10/18 00:44:10;;;;;;;8.03;6.90;;;17.60;99.90;;;;;;4928010;29;20223;-74
2022/10/18 00:46:40;;;;;;;7.70;6.30;;;17.60;99.90;;;;;;4943577;29;20274;-74
2022/10/18 00:49:19;;;;;;;7.90;7.10;;;17.60;99.90;;;;;;4929462;29;20255;-74
2022/10/18 00:51:46;;;;;;;8.57;6.63;;;17.50;99.90;;;;;;4945334;29;20285;-74
2022/10/18 00:54:13;;;;;;;11.10;7.13;;;17.50;99.90;;;;;;4943322;28;20687;-74
2022/10/18 00:56:39;;;;;;;10.13;7.60;;;17.50;99.90;;;;;;4936875;29;20827;-75
2022/10/18 00:59:06;;;;;;;8.60;6.63;;;17.50;99.90;;;;;;4935504;29;20230;-74
2022/10/18 01:01:31;;;;;;;7.37;6.63;;;17.50;99.90;;;;;;4935714;29;20257;-76
2022/10/18 01:03:57;;;;;;;10.10;7.23;;;17.50;99.90;;;;;;4940093;29;20223;-76
2022/10/18 01:06:23;;;;;;;8.53;7.50;;;17.50;99.90;;;;;;4945290;29;20235;-75
2022/10/18 01:09:00;;;;;;;12.13;8.00;;;17.50;99.90;;;;;;4943310;29;20229;-76
2022/10/18 01:11:53;;;;;;;10.27;8.47;;;17.50;99.90;;;;;;4945403;29;20195;-75
2022/10/18 01:14:44;;;;;;;8.63;7.83;;;17.50;99.90;;;;;;4936715;29;20213;-75
2022/10/18 01:17:19;;;;;;;9.47;8.43;;;17.50;99.90;;;;;;4929805;29;20206;-76
2022/10/18 01:20:01;;;;;;;10.47;9.40;;;17.50;99.90;;;;;;4942980;29;20306;-76
2022/10/18 01:22:42;;;;;;;11.57;9.00;;;17.50;99.90;;;;;;4937876;29;20204;-77
2022/10/18 01:25:38;;;;;;;9.90;8.43;;;17.50;99.90;;;;;;4936509;28;20993;-76
2022/10/18 01:28:21;;;;;;;12.03;7.90;;;17.50;99.90;;;;;;4935821;29;20249;-74
2022/10/18 01:30:52;;;;;;;8.93;8.00;;;17.50;99.90;;;;;;4939031;29;20186;-73
2022/10/18 01:33:31;;;;;;;10.20;9.10;;;17.40;99.90;;;;;;4932910;29;20202;-72
2022/10/18 01:36:14;;;;;;;9.40;8.43;;;17.40;99.90;;;;;;4935641;29;20206;-73
2022/10/18 01:38:41;;;;;;;11.30;9.33;;;17.40;99.90;;;;;;4934324;29;20210;-76
2022/10/18 01:41:09;;;;;;;11.83;9.07;;;17.40;99.90;;;;;;4945010;29;20208;-76
2022/10/18 01:43:36;;;;;;;10.23;8.57;;;17.40;99.90;;;;;;4930519;29;20210;-76
2022/10/18 01:46:03;;;;;;;13.63;10.37;;;17.40;99.90;;;;;;4934890;29;20223;-76
2022/10/18 01:48:29;;;;;;;11.47;10.13;;;17.40;99.90;;;;;;4940560;29;20253;-75
2022/10/18 01:50:55;;;;;;;14.77;9.27;;;17.30;99.90;;;;;;4935618;29;20525;-76
2022/10/18 01:53:30;;;;;;;10.30;9.30;;;17.30;99.90;;;;;;4932525;29;20622;-76
2022/10/18 01:56:08;;;;;;;12.53;11.17;;;17.30;99.90;;;;;;4936462;29;20190;-74
2022/10/18 01:58:48;;;;;;;11.53;10.37;;;17.40;99.90;;;;;;4930867;29;21224;-71
2022/10/18 02:01:38;;;;;;;11.73;10.53;;;17.40;99.90;;;;;;4941862;29;20191;-74
2022/10/18 02:04:18;;;;;;;11.30;10.20;;;17.40;99.90;;;;;;4936456;29;20226;-76
2022/10/18 02:06:48;;;;;;;13.87;10.73;;;17.40;99.90;;;;;;4935153;29;20253;-74
2022/10/18 02:09:22;;;;;;;10.70;9.63;;;17.40;99.90;;;;;;4942210;29;20674;-74
2022/10/18 02:11:52;;;;;;;10.90;9.90;;;17.40;99.90;;;;;;4942268;29;20230;-74
2022/10/18 02:14:20;;;;;;;12.20;11.00;;;17.40;99.90;;;;;;4932083;29;20233;-75
2022/10/18 02:16:55;;;;;;;10.83;9.67;;;17.40;99.90;;;;;;4939846;29;20270;-74
2022/10/18 02:19:36;;;;;;;14.40;10.70;;;17.40;99.90;;;;;;4940669;29;20206;-76
2022/10/18 02:22:03;;;;;;;13.53;10.73;;;17.30;99.90;;;;;;4944488;29;20289;-76
2022/10/18 02:24:37;;;;;;;10.30;9.33;;;17.30;99.90;;;;;;4941059;29;20681;-79
2022/10/18 02:27:03;;;;;;;10.73;9.70;;;17.30;99.90;;;;;;4937362;29;20739;-73
2022/10/18 02:29:29;;;;;;;10.60;9.50;;;17.30;99.90;;;;;;4937795;29;20205;-73
2022/10/18 02:32:07;;;;;;;9.80;8.37;;;17.30;99.90;;;;;;4936596;29;20254;-73
2022/10/18 02:34:40;;;;;;;9.67;8.57;;;17.30;99.90;;;;;;4939875;29;20264;-73
2022/10/18 02:37:09;;;;;;;10.20;9.30;;;17.30;99.90;;;;;;4934847;28;20252;-72
2022/10/18 02:39:38;;;;;;;9.20;8.20;;;17.30;99.90;;;;;;4945778;29;20214;-70
2022/10/18 02:42:05;;;;;;;11.07;9.03;;;17.30;99.90;;;;;;4931382;29;20661;-76
2022/10/18 02:44:32;;;;;;;9.37;8.47;;;17.30;99.90;;;;;;4941615;29;20592;-76
2022/10/18 02:46:58;;;;;;;10.70;9.47;;;17.30;99.90;;;;;;4947630;29;20234;-77
2022/10/18 02:49:23;;;;;;;9.30;8.40;;;17.30;99.90;;;;;;4946234;29;20545;-76
2022/10/18 02:51:49;;;;;;;10.90;9.77;;;17.20;99.90;;;;;;4946389;29;20464;-77
2022/10/18 02:54:14;;;;;;;10.57;8.53;;;17.20;99.90;;;;;;4933658;29;20226;-76
2022/10/18 02:56:39;;;;;;;9.80;8.30;;;17.20;99.90;;;;;;4937124;29;20296;-77
2022/10/18 02:59:06;;;;;;;12.20;9.80;;;17.20;99.90;;;;;;4938345;29;20239;-75
2022/10/18 03:01:32;;;;;;;10.23;9.33;;;17.20;99.90;;;;;;4938701;29;20198;-76
2022/10/18 03:03:58;;;;;;;13.33;9.77;;;17.20;99.90;;;;;;4943778;29;20222;-75
2022/10/18 03:06:23;;;;;;;10.30;9.17;;;17.20;99.90;;;;;;4947647;29;20198;-76
2022/10/18 03:08:49;;;;;;;10.33;9.20;;;17.20;99.90;;;;;;4933845;29;20686;-74
2022/10/18 03:11:14;;;;;;;9.97;9.00;;;17.20;99.90;;;;;;4945038;29;20225;-75
2022/10/18 03:13:40;;;;;;;9.70;8.80;;;17.10;99.90;;;;;;4936686;29;20214;-75
2022/10/18 03:16:05;;;;;;;13.40;9.27;;;17.10;99.90;;;;;;4946994;29;20724;-75
2022/10/18 03:18:31;;;;;;;9.53;8.17;;;17.10;99.90;;;;;;4937735;29;20190;-76
2022/10/18 03:20:56;;;;;;;9.30;8.50;;;17.10;99.90;;;;;;4939713;29;20645;-75
2022/10/18 03:23:22;;;;;;;9.40;8.60;;;17.10;99.90;;;;;;4941283;29;20207;-76
2022/10/18 03:25:47;;;;;;;9.23;8.43;;;17.10;99.90;;;;;;4943579;29;20214;-76
2022/10/18 03:28:12;;;;;;;10.50;9.00;;;17.10;99.90;;;;;;4940473;29;20698;-76
2022/10/18 03:30:38;;;;;;;9.93;8.93;;;17.10;99.90;;;;;;4938528;29;20199;-76
2022/10/18 03:33:05;;;;;;;10.53;8.87;;;17.00;99.90;;;;;;4938123;29;20927;-76
2022/10/18 03:35:30;;;;;;;9.57;8.67;;;17.10;99.90;;;;;;4941373;29;20220;-77
2022/10/18 03:37:56;;;;;;;9.13;8.33;;;17.10;99.90;;;;;;4937106;29;20203;-76
2022/10/18 03:40:21;;;;;;;9.73;8.73;;;17.00;99.90;;;;;;4942793;29;20261;-75
2022/10/18 03:42:47;;;;;;;8.57;7.67;;;17.00;99.90;;;;;;4937206;29;20206;-76
2022/10/18 03:45:12;;;;;;;9.43;8.43;;;17.00;99.90;;;;;;4941228;29;21045;-76
2022/10/18 03:47:44;;;;;;;9.23;8.10;;;17.00;99.90;;;;;;4935097;29;20222;-78
2022/10/18 03:50:09;;;;;;;11.70;8.83;;;17.00;99.90;;;;;;4943765;28;20205;-77
2022/10/18 03:52:36;;;;;;;10.17;8.57;;;16.90;99.90;;;;;;4920178;28;20866;-76
2022/10/18 03:55:03;;;;;;;9.60;8.57;;;16.80;99.90;;;;;;4944752;29;20687;-73
2022/10/18 03:57:28;;;;;;;8.23;7.47;;;16.80;99.90;;;;;;4946291;29;20248;-75
2022/10/18 03:59:54;;;;;;;9.27;8.30;;;16.80;99.90;;;;;;4937824;29;20214;-74
2022/10/18 04:02:19;;;;;;;9.43;8.07;;;16.70;99.90;;;;;;4939195;29;20965;-74
2022/10/18 04:04:45;;;;;;;9.07;7.67;;;16.70;99.90;;;;;;4940813;29;20316;-73
2022/10/18 04:07:11;;;;;;;10.27;7.90;;;16.70;99.90;;;;;;4937461;29;20195;-77
2022/10/18 04:09:36;;;;;;;9.50;7.60;;;16.60;99.90;;;;;;4937973;29;20286;-76
2022/10/18 04:12:02;;;;;;;8.20;7.40;;;16.60;99.90;;;;;;4936373;29;20242;-73
2022/10/18 04:14:28;;;;;;;9.47;8.57;;;16.60;99.90;;;;;;4943854;29;20201;-74
2022/10/18 04:16:54;;;;;;;7.83;7.13;;;16.60;99.90;;;;;;4936658;29;20615;-74
2022/10/18 04:19:19;;;;;;;9.20;8.37;;;16.60;99.90;;;;;;4943876;29;20297;-73
2022/10/18 04:21:44;;;;;;;14.87;8.13;;;16.60;99.90;;;;;;4945847;29;20190;-73
2022/10/18 04:24:10;;;;;;;10.07;9.00;;;16.60;99.90;;;;;;4943385;29;20717;-74
2022/10/18 04:26:35;;;;;;;10.10;8.73;;;16.60;99.90;;;;;;4944041;29;20195;-76
2022/10/18 04:29:01;;;;;;;9.23;8.20;;;16.60;99.90;;;;;;4942696;29;20240;-78
2022/10/18 04:31:26;;;;;;;10.17;8.97;;;16.50;99.90;;;;;;4936097;29;20222;-75
2022/10/18 04:33:52;;;;;;;9.57;8.67;;;16.60;99.90;;;;;;4934159;29;20587;-75
2022/10/18 04:36:18;;;;;;;9.93;8.93;;;16.60;99.90;;;;;;4945265;29;20253;-75
2022/10/18 04:38:43;;;;;;;10.43;9.40;;;16.60;99.90;;;;;;4936826;29;20195;-76
2022/10/18 04:41:08;;;;;;;10.77;9.63;;;16.50;99.90;;;;;;4942028;29;20685;-75
2022/10/18 04:43:34;;;;;;;13.63;10.23;;;16.50;99.90;;;;;;4936752;29;20210;-75
2022/10/18 04:45:59;;;;;;;13.53;9.87;;;16.40;99.90;;;;;;4942741;29;20786;-72
2022/10/18 04:48:25;;;;;;;12.43;10.23;;;16.40;99.90;;;;;;4937279;29;20230;-76
2022/10/18 04:50:50;;;;;;;10.13;9.13;;;16.40;99.90;;;;;;4936699;29;20250;-75
2022/10/18 04:53:17;;;;;;;10.93;8.63;;;16.30;99.90;;;;;;4936140;29;20207;-76
2022/10/18 04:55:47;;;;;;;9.73;8.73;;;16.40;99.90;;;;;;4941133;29;20308;-76
2022/10/18 04:58:13;;;;;;;15.77;9.40;;;16.30;99.90;;;;;;4937164;29;20203;-77
2022/10/18 05:00:39;;;;;;;9.47;8.57;;;16.30;99.90;;;;;;4942770;28;20210;-76
2022/10/18 05:03:04;;;;;;;9.80;8.77;;;16.30;99.90;;;;;;4945337;29;20190;-76
2022/10/18 05:05:29;;;;;;;10.53;8.97;;;16.30;99.90;;;;;;4943733;29;20207;-76
2022/10/18 05:07:55;;;;;;;10.37;8.73;;;16.40;99.90;;;;;;4934152;29;20190;-76
2022/10/18 05:10:20;;;;;;;9.87;8.40;;;16.40;99.90;;;;;;4942209;29;20198;-75
2022/10/18 05:12:46;;;;;;;9.80;8.20;;;16.40;99.90;;;;;;4936918;29;20237;-78
2022/10/18 05:15:11;;;;;;;9.03;8.33;;;16.40;99.90;;;;;;4942364;29;20218;-78
2022/10/18 05:17:37;;;;;;;10.77;9.27;;;16.40;99.90;;;;;;4936604;29;20281;-77
2022/10/18 05:20:03;;;;;;;9.67;8.67;;;16.40;99.90;;;;;;4917661;29;20210;-78
2022/10/18 05:22:28;;;;;;;11.17;8.17;;;16.40;99.90;;;;;;4945306;29;20206;-78
2022/10/18 05:24:54;;;;;;;10.00;9.00;;;16.40;99.90;;;;;;4940624;29;20308;-78
2022/10/18 05:27:19;;;;;;;9.30;8.40;;;16.40;99.90;;;;;;4936474;29;20190;-78
2022/10/18 05:29:45;;;;;;;8.53;7.73;;;16.40;99.90;;;;;;4939944;29;20203;-77
2022/10/18 05:32:10;;;;;;;14.43;8.47;;;16.40;99.90;;;;;;4943632;29;20195;-78
2022/10/18 05:34:36;;;;;;;10.97;8.00;;;16.40;99.90;;;;;;4934470;29;20262;-76
2022/10/18 05:37:02;;;;;;;9.17;8.27;;;16.40;99.90;;;;;;4935965;29;20198;-78
2022/10/18 05:39:27;;;;;;;9.63;8.70;;;16.30;99.90;;;;;;4943365;29;20696;-78
2022/10/18 05:41:53;;;;;;;9.07;8.27;;;16.40;99.90;;;;;;4942061;29;20252;-77
2022/10/18 05:44:18;;;;;;;10.33;8.57;;;16.40;99.90;;;;;;4931055;29;20218;-78
2022/10/18 05:46:44;;;;;;;8.97;7.97;;;16.40;99.90;;;;;;4941779;29;20218;-79
2022/10/18 05:49:11;;;;;;;9.47;8.20;;;16.30;99.90;;;;;;4933387;29;20194;-78
2022/10/18 05:51:36;;;;;;;10.43;8.43;;;16.30;99.90;;;;;;4935196;29;20191;-75
2022/10/18 05:54:02;;;;;;;9.37;8.40;;;16.40;99.90;;;;;;4944858;28;20224;-77
2022/10/18 05:56:28;;;;;;;9.83;8.83;;;16.30;99.90;;;;;;4942113;29;20210;-79
2022/10/18 05:58:53;;;;;;;9.33;7.87;;;16.30;99.90;;;;;;4938393;29;20208;-78
2022/10/18 06:01:19;;;;;;;9.30;8.37;;;16.30;99.90;;;;;;4938682;29;20221;-78
2022/10/18 06:03:44;;;;;;;9.60;8.70;;;16.30;99.90;;;;;;4936344;29;20337;-78
2022/10/18 06:06:11;;;;;;;10.33;9.43;;;16.30;99.90;;;;;;4939595;29;20253;-77
2022/10/18 06:08:38;;;;;;;10.80;9.03;;;16.30;99.90;;;;;;4936074;29;20535;-78
2022/10/18 06:11:07;;;;;;;8.67;7.77;;;16.40;99.90;;;;;;4943033;28;20202;-75
2022/10/18 06:13:33;;;;;;;10.90;9.83;;;16.40;99.90;;;;;;4948801;29;20194;-77
2022/10/18 06:15:58;;;;;;;11.27;10.17;;;16.40;99.90;;;;;;4942759;29;20279;-76
2022/10/18 06:18:24;;;;;;;9.77;8.77;;;16.30;99.90;;;;;;4947338;29;20236;-77
2022/10/18 06:20:56;;;;;;;10.63;9.50;;;16.40;99.90;;;;;;4941319;29;20217;-77
2022/10/18 06:23:21;;;;;;;9.50;8.40;;;16.40;99.90;;;;;;4939831;29;20206;-80
2022/10/18 06:25:46;;;;;;;10.03;9.10;;;16.40;99.90;;;;;;4946618;29;20264;-72
2022/10/18 06:28:12;;;;;;;10.70;8.20;;;16.40;99.90;;;;;;4943191;29;20191;-75
2022/10/18 06:30:37;;;;;;;9.60;8.63;;;16.40;99.90;;;;;;4942906;29;20221;-78
2022/10/18 06:33:03;;;;;;;10.80;9.10;;;16.40;99.90;;;;;;4942690;29;20720;-73
2022/10/18 06:35:28;;;;;;;10.57;9.03;;;16.40;99.90;;;;;;4936481;29;20210;-76
2022/10/18 06:37:54;;;;;;;9.67;8.07;;;16.40;99.90;;;;;;4939335;29;20603;-77
2022/10/18 06:40:19;;;;;;;10.93;9.80;;;16.40;99.90;;;;;;4945421;29;20198;-76
2022/10/18 06:42:46;;;;;;;9.30;8.40;;;16.40;99.90;;;;;;4938755;29;20206;-78
2022/10/18 06:45:11;;;;;;;9.80;8.83;;;16.40;99.90;;;;;;4942162;29;20300;-76
2022/10/18 06:47:37;;;;;;;9.10;8.23;;;16.40;99.90;;;;;;4942427;29;20313;-74
2022/10/18 06:50:02;;;;;;;8.47;7.67;;;16.50;99.90;;;;;;4941754;29;20209;-76
2022/10/18 06:52:28;;;;;;;10.17;7.80;;;16.50;99.90;;;;;;4947707;28;20190;-76
2022/10/18 06:54:53;;;;;;;12.47;9.13;;;16.50;99.90;;;;;;4940438;29;20256;-76
2022/10/18 06:57:19;;;;;;;9.50;7.43;;;16.50;99.90;;;;;;4947915;29;20198;-77
2022/10/18 06:59:45;;;;;;;8.43;7.40;;;16.50;99.90;;;;;;4933120;29;20220;-76
2022/10/18 07:02:16;;;;;;;7.73;7.03;;;16.50;99.90;;;;;;4943396;29;20528;-76
2022/10/18 07:04:41;;;;;;;8.37;7.67;;;16.50;99.90;;;;;;4933460;29;20717;-75
2022/10/18 07:07:07;;;;;;;7.67;6.37;;;16.50;99.90;;;;;;4946047;29;20205;-75
2022/10/18 07:09:32;;;;;;;7.23;6.47;;;16.50;99.90;;;;;;4934636;29;20195;-76
2022/10/18 07:11:58;;;;;;;6.80;6.17;;;16.60;99.90;;;;;;4946133;29;20241;-76
2022/10/18 07:14:23;;;;;;;8.97;7.50;;;16.60;99.90;;;;;;4936596;29;20616;-75
2022/10/18 07:16:48;;;;;;;10.10;7.90;;;16.60;99.90;;;;;;4947103;29;20207;-74
2022/10/18 07:19:15;;;;;;;10.07;8.27;;;16.60;99.90;;;;;;4947457;29;20202;-74
2022/10/18 07:21:40;;;;;;;8.53;7.83;;;16.60;99.90;;;;;;4940959;29;20648;-74
2022/10/18 07:24:06;;;;;;;9.63;8.73;;;16.60;99.90;;;;;;4935081;29;20248;-74
2022/10/18 07:26:34;;;;;;;8.53;7.63;;;16.60;99.90;;;;;;4941765;29;20204;-74
2022/10/18 07:29:09;;;;;;;9.00;8.10;;;16.60;99.90;;;;;;4939937;28;20958;-73
2022/10/18 07:31:35;;;;;;;13.13;8.50;;;16.60;99.90;;;;;;4934544;29;20213;-73
2022/10/18 07:34:03;;;;;;;7.97;7.30;;;16.60;99.90;;;;;;4938080;29;20202;-74
2022/10/18 07:36:29;;;;;;;9.03;8.10;;;16.60;99.90;;;;;;4946417;29;20248;-71
2022/10/18 07:38:55;;;;;;;9.07;7.90;;;16.60;99.90;;;;;;4938749;29;20264;-74
2022/10/18 07:41:20;;;;;;;11.27;8.17;;;16.60;99.90;;;;;;4941718;29;20657;-74
2022/10/18 07:43:49;;;;;;;10.03;8.53;;;16.60;99.90;;;;;;4939825;29;20237;-75
2022/10/18 07:46:15;;;;;;;8.33;7.53;;;16.70;99.90;;;;;;4956974;29;20210;-75
2022/10/18 07:48:41;;;;;;;7.70;6.83;;;16.60;99.90;;;;;;4951259;29;20556;-76
2022/10/18 07:51:08;;;;;;;12.03;7.90;;;16.60;99.90;;;;;;4946399;29;20300;-73
2022/10/18 07:53:33;;;;;;;8.00;7.20;;;16.70;99.90;;;;;;4938494;28;20226;-74
2022/10/18 07:56:05;;;;;;;8.93;7.10;;;16.50;99.90;;;;;;4941743;29;20210;-76
2022/10/18 07:58:31;;;;;;;8.40;7.53;;;16.40;99.90;;;;;;4939111;29;20194;-74
2022/10/18 08:01:00;;;;;;;9.53;7.97;;;16.40;99.90;;;;;;4927202;29;20210;-73
2022/10/18 08:03:26;;;;;;;8.03;7.23;;;16.40;99.90;;;;;;4938697;29;20203;-72
2022/10/18 08:05:53;;;;;;;8.67;6.77;;;16.30;99.90;;;;;;4933814;29;20209;-75
2022/10/18 08:08:20;;;;;;;11.07;7.57;;;16.30;99.90;;;;;;4933311;29;20226;-75
2022/10/18 08:10:46;;;;;;;11.53;7.57;;;16.40;99.90;;;;;;4942844;29;20296;-76
2022/10/18 08:13:11;;;;;;;12.83;7.87;;;16.40;99.90;;;;;;4945778;29;20285;-76
2022/10/18 08:15:37;;;;;;;9.33;7.17;;;16.40;99.90;;;;;;4934889;29;20258;-76
2022/10/18 08:18:02;;;;;;;8.63;6.87;;;16.40;99.90;;;;;;4945150;29;20198;-81
2022/10/18 08:20:29;;;;;;;6.97;6.33;;;16.40;99.90;;;;;;4937847;29;20206;-77
2022/10/18 08:22:55;;;;;;;7.70;7.00;;;16.40;99.90;;;;;;4935433;29;20230;-76
2022/10/18 08:25:20;;;;;;;6.80;6.10;;;16.40;99.90;;;;;;4938618;29;20709;-80
2022/10/18 08:27:46;;;;;;;7.27;6.67;;;16.40;99.90;;;;;;4945511;29;20198;-74
2022/10/18 08:30:11;;;;;;;10.70;7.10;;;16.40;99.90;;;;;;4943054;29;20262;-74
2022/10/18 08:32:37;;;;;;;9.70;7.10;;;16.40;99.90;;;;;;4945506;29;20294;-79
2022/10/18 08:35:02;;;;;;;10.30;7.13;;;16.40;99.90;;;;;;4930275;28;20198;-74
2022/10/18 08:37:28;;;;;;;7.33;6.40;;;16.50;99.90;;;;;;4938710;29;20704;-75
2022/10/18 08:39:53;;;;;;;8.97;6.73;;;16.50;99.90;;;;;;4938809;29;20287;-75
2022/10/18 08:42:23;;;;;;;7.30;6.27;;;16.60;99.90;;;;;;4935566;29;20194;-75
2022/10/18 08:44:49;;;;;;;8.37;6.87;;;16.50;99.90;;;;;;4941952;29;20292;-76
2022/10/18 08:47:18;;;;;;;10.47;6.93;;;16.60;99.90;;;;;;4941113;29;20267;-77
2022/10/18 08:49:56;;;;;;;8.07;7.23;;;16.60;99.90;;;;;;4943013;29;20652;-80
2022/10/18 08:52:31;;;;;;;7.40;6.70;;;16.50;99.90;;;;;;4936805;29;20552;-79
2022/10/18 08:55:23;;;;;;;6.10;5.60;;;16.40;99.90;;;;;;4931086;29;20190;-76
2022/10/18 08:57:50;;;;;;;7.63;6.83;;;16.40;99.90;;;;;;4937905;29;20650;-75
2022/10/18 09:00:21;;;;;;;7.67;6.97;;;16.30;99.90;;;;;;4936934;29;20194;-74
2022/10/18 09:03:28;;;;;;;8.57;6.47;;;16.10;99.90;;;;;;4937304;29;20198;-75
2022/10/18 09:06:05;;;;;;;9.17;7.67;;;16.20;99.90;;;;;;4933879;29;20217;-77
2022/10/18 09:08:51;;;;;;;6.97;6.03;;;16.20;99.90;;;;;;4940005;29;20203;-76
2022/10/18 09:11:52;;;;;;;8.63;7.83;;;16.20;99.90;;;;;;4933176;29;20213;-71
2022/10/18 09:14:26;;;;;;;8.47;7.57;;;16.00;99.90;;;;;;4912385;29;20210;-73
2022/10/18 09:17:13;;;;;;;10.03;7.80;;;16.00;99.90;;;;;;4938277;29;20269;-77
2022/10/18 09:19:58;;;;;;;9.47;7.23;;;15.80;99.90;;;;;;4938176;29;20694;-74
2022/10/18 09:22:53;;;;;;;8.50;7.70;;;15.80;99.90;;;;;;4932653;29;20208;-75
2022/10/18 09:25:34;;;;;;;10.97;8.63;;;15.70;99.90;;;;;;4926192;29;20288;-77
2022/10/18 09:28:41;;;;;;;9.03;7.30;;;15.80;99.90;;;;;;4937728;29;20293;-72
2022/10/18 09:31:45;;;;;;;8.73;7.83;;;15.80;99.90;;;;;;4942700;29;20249;-73
2022/10/18 09:34:30;;;;;;;7.93;7.20;;;15.90;99.90;;;;;;4887974;29;20198;-77
2022/10/18 09:36:56;;;;;;;7.80;7.00;;;15.90;99.90;;;;;;4929823;29;20215;-71
2022/10/18 09:39:28;;;;;;;9.50;8.20;;;15.80;99.90;;;;;;4935709;29;20720;-73
2022/10/18 09:41:58;;;;;;;9.13;7.67;;;15.90;99.90;;;;;;4935461;28;20203;-73
2022/10/18 09:44:34;;;;;;;10.47;6.60;;;15.90;99.90;;;;;;4939203;29;20235;-71
2022/10/18 09:47:06;;;;;;;10.43;7.00;;;16.00;99.90;;;;;;4933403;29;20225;-75
2022/10/18 09:49:39;;;;;;;8.47;7.77;;;15.90;99.90;;;;;;4936343;29;20212;-74
2022/10/18 09:52:12;;;;;;;8.03;7.33;;;16.00;99.90;;;;;;4917452;29;20194;-81
2022/10/18 09:54:45;;;;;;;8.60;7.67;;;16.00;99.90;;;;;;4943158;29;20285;-77
2022/10/18 09:57:20;;;;;;;10.77;8.20;;;16.00;99.90;;;;;;4938984;29;20206;-71
2022/10/18 09:59:48;;;;;;;8.90;7.47;;;15.90;99.90;;;;;;4937367;29;20660;-71
2022/10/18 10:02:23;;;;;;;8.93;7.83;;;16.00;99.90;;;;;;4939075;29;20222;-74
2022/10/18 10:04:50;;;;;;;8.67;7.80;;;16.00;99.90;;;;;;4932211;29;20218;-77
2022/10/18 10:07:26;;;;;;;9.27;8.27;;;15.90;99.90;;;;;;4933178;29;20194;-72
2022/10/18 10:10:05;;;;;;;11.43;8.37;;;15.90;99.90;;;;;;4938936;29;20226;-72
2022/10/18 10:12:37;;;;;;;12.30;8.80;;;15.90;99.90;;;;;;4932577;29;20289;-71
2022/10/18 10:15:19;;;;;;;13.33;8.93;;;15.80;99.90;;;;;;4936530;29;20226;-77
2022/10/18 10:18:20;;;;;;;10.17;9.10;;;15.80;99.90;;;;;;4943432;29;20294;-81
2022/10/18 10:20:52;;;;;;;9.53;8.70;;;15.90;99.90;;;;;;4931315;29;20222;-72
2022/10/18 10:23:30;;;;;;;9.63;8.67;;;15.80;99.90;;;;;;4944129;28;20210;-72
2022/10/18 10:25:58;;;;;;;10.53;9.43;;;15.90;99.90;;;;;;4936545;29;20214;-72
2022/10/18 10:28:35;;;;;;;10.63;9.27;;;15.90;99.90;;;;;;4939111;29;20195;-71
2022/10/18 10:31:27;;;;;;;9.93;8.90;;;15.90;99.90;;;;;;4939814;29;20284;-73
2022/10/18 10:34:05;;;;;;;9.47;8.43;;;15.80;99.90;;;;;;4943607;29;20253;-72
2022/10/18 10:36:32;;;;;;;9.77;8.77;;;15.80;99.90;;;;;;4941211;29;20210;-71
2022/10/18 10:39:04;;;;;;;10.47;9.47;;;15.80;99.90;;;;;;4937922;29;20204;-72
2022/10/18 10:41:30;;;;;;;11.10;9.97;;;15.80;99.90;;;;;;4941033;29;20206;-72
2022/10/18 10:43:56;;;;;;;10.30;9.37;;;16.00;99.90;;;;;;4935327;29;20319;-73
2022/10/18 10:46:22;;;;;;;9.50;8.60;;;16.00;99.90;;;;;;4941292;29;20222;-71
2022/10/18 10:48:53;;;;;;;9.90;8.83;;;16.00;99.90;;;;;;4934981;29;20629;-72
2022/10/18 10:51:37;;;;;;;8.63;7.83;;;16.10;99.90;;;;;;4939368;29;20190;-85
2022/10/18 10:54:07;;;;;;;10.00;7.90;;;16.10;99.90;;;;;;4945474;28;20222;-78
2022/10/18 10:56:36;;;;;;;9.60;8.67;;;16.20;99.90;;;;;;4941135;29;20206;-79
2022/10/18 10:59:14;;;;;;;9.17;8.27;;;16.30;99.90;;;;;;4935512;28;20195;-80
2022/10/18 11:01:40;;;;;;;8.23;7.40;;;16.20;99.90;;;;;;4929398;29;20321;-79
2022/10/18 11:04:26;;;;;;;7.23;6.57;;;16.20;99.90;;;;;;4938507;29;20872;-79
2022/10/18 11:07:34;;;;;;;8.30;7.50;;;16.10;99.90;;;;;;4943790;29;20238;-79
2022/10/18 11:10:06;;;;;;;8.33;7.60;;;16.10;99.90;;;;;;4933659;29;20183;-79
2022/10/18 11:12:45;;;;;;;9.43;8.37;;;16.10;99.90;;;;;;4940509;29;20206;-79
2022/10/18 11:15:42;;;;;;;8.90;8.00;;;16.10;99.90;;;;;;4937318;29;20194;-79
2022/10/18 11:18:22;;;;;;;9.63;8.67;;;16.20;99.90;;;;;;4930610;29;20202;-79
2022/10/18 11:21:06;;;;;;;8.17;7.37;;;16.20;99.90;;;;;;4945404;29;20236;-79
2022/10/18 11:23:34;;;;;;;11.47;8.10;;;16.30;99.90;;;;;;4946435;29;20222;-78
2022/10/18 11:26:11;;;;;;;9.10;8.27;;;16.20;99.90;;;;;;4940409;29;20511;-78
2022/10/18 11:29:26;;;;;;;11.10;8.37;;;16.30;99.90;;;;;;4942636;29;20186;-78
2022/10/18 11:32:04;;;;;;;8.43;7.70;;;16.20;99.90;;;;;;4932479;29;20577;-77
2022/10/18 11:35:08;;;;;;;13.63;10.77;;;16.20;99.90;;;;;;4938740;29;20242;-77
2022/10/18 11:37:36;;;;;;;10.47;8.87;;;16.10;99.90;;;;;;4938160;29;20280;-76
2022/10/18 11:40:39;;;;;;;10.80;9.27;;;16.00;99.90;;;;;;4937401;29;20191;-78
2022/10/18 11:43:34;;;;;;;9.97;9.00;;;16.10;99.90;;;;;;4940602;29;20338;-77
2022/10/18 11:46:10;;;;;;;9.43;8.20;;;16.10;99.90;;;;;;4939121;29;20274;-77
2022/10/18 11:48:55;;;;;;;9.20;8.30;;;16.20;99.90;;;;;;4936622;29;20190;-78
2022/10/18 11:51:39;;;;;;;7.83;7.13;;;16.20;99.90;;;;;;4942850;29;20205;-77
2022/10/18 11:54:21;;;;;;;8.00;7.30;;;16.30;99.90;;;;;;4944943;28;20317;-78
2022/10/18 11:56:57;;;;;;;7.80;7.13;;;16.40;99.90;;;;;;4943081;29;20614;-78
2022/10/18 12:00:06;;;;;;;7.73;6.93;;;16.50;99.90;;;;;;4939535;29;20203;-78
2022/10/18 12:03:12;;;;;;;8.83;8.03;;;16.50;99.90;;;;;;4933397;28;20599;-77
2022/10/18 12:05:41;;;;;;;6.53;6.03;;;16.60;99.90;;;;;;4942223;29;20218;-77
2022/10/18 12:08:15;;;;;;;7.07;6.47;;;16.60;99.90;;;;;;4946068;29;20199;-77
2022/10/18 12:10:44;;;;;;;7.07;6.37;;;16.50;99.90;;;;;;4934554;28;20191;-78
2022/10/18 12:13:19;;;;;;;7.30;6.57;;;16.60;99.90;;;;;;4945788;29;20254;-78
2022/10/18 12:15:46;;;;;;;6.37;5.87;;;16.60;99.90;;;;;;4944521;29;20215;-78
2022/10/18 12:18:22;;;;;;;5.80;5.20;;;16.60;99.90;;;;;;4943160;29;20201;-78
2022/10/18 12:20:50;;;;;;;6.33;5.83;;;16.60;99.90;;;;;;4940674;29;20225;-78
2022/10/18 12:23:17;;;;;;;6.67;6.03;;;16.70;99.90;;;;;;4945258;29;20198;-78
2022/10/18 12:25:48;;;;;;;6.80;6.27;;;16.70;99.90;;;;;;4931568;29;20562;-78
2022/10/18 12:28:40;;;;;;;7.03;6.33;;;16.70;99.90;;;;;;4935728;29;20558;-76
2022/10/18 12:31:15;;;;;;;8.03;6.07;;;16.60;99.90;;;;;;4943398;29;20306;-77
2022/10/18 12:33:46;;;;;;;7.50;6.80;;;16.60;99.90;;;;;;4944791;28;20201;-78
2022/10/18 12:36:20;;;;;;;7.17;6.43;;;16.70;99.90;;;;;;4934118;29;20241;-77
2022/10/18 12:39:01;;;;;;;7.30;6.60;;;16.80;99.90;;;;;;4944776;29;20205;-78
2022/10/18 12:41:33;;;;;;;7.83;7.13;;;16.80;99.90;;;;;;4921236;29;20203;-75
2022/10/18 12:44:04;;;;;;;8.40;6.73;;;16.80;99.90;;;;;;4960016;29;20244;-78
2022/10/18 12:47:00;;;;;;;8.53;7.73;;;16.80;99.90;;;;;;4941228;29;20225;-78
2022/10/18 12:49:34;;;;;;;8.60;7.80;;;16.90;99.90;;;;;;4927303;29;20198;-77
2022/10/18 12:52:03;;;;;;;9.23;8.33;;;16.90;99.90;;;;;;4938772;29;20198;-78
2022/10/18 12:54:31;;;;;;;8.70;7.80;;;16.90;99.90;;;;;;4944724;28;20206;-77
2022/10/18 12:56:59;;;;;;;8.93;7.20;;;16.90;99.90;;;;;;4919359;29;20202;-78
2022/10/18 12:59:27;;;;;;;8.33;7.57;;;16.90;99.90;;;;;;4945130;29;20253;-78
2022/10/18 13:01:52;;;;;;;8.93;8.10;;;16.90;99.90;;;;;;4941239;29;20972;-78